Kisatchie, Louisiana
Current Conditions -  °F | °C
As of 5:56 PM on Wednesday 22 Oct 2014 (Local Time) from KAQV Reporting Station
Clear Clear  
Wind Chill: 75°   Ceiling: Unl
Heat Index: 75°   Visibility: 10mi
Dew Point: 53°   Wind: 5mph
Humidity: 46%   Direction: NA
Pressure: 30.06"   Gusts: NA
Location:  31.5208°N, 93.1217°W
Report Text: KAQV 222256Z AUTO VRB04KT 10SM CLR 24/12 A3006 RMK AO2 SLP177 T02390117
Loading
Personal Weather Stations






























Interactive Weather Map
Tropical Storm Tracking
New forecast layout! Learn more

10-Day Weather Forecast

Advertisements
Track Severe Weather on mobile